Time;durP1;ratioP1;P1;durP2;ratioP2;P2;SDS_P1;SDS_P2;PMS_P1;PMS_P2;Temp;Humidity;BMP_temperature;BMP_pressure;BME280_temperature;BME280_humidity;BME280_pressure;Samples;Min_cycle;Max_cycle;Signal;HPM_P1;HPM_P2
2024/01/25 00:02:04;;;;;;;32.08;5.20;;;;;;;7.75;100.00;102487.19;4962190;28;20039;-95
2024/01/25 00:04:31;;;;;;;21.35;4.07;;;;;;;7.69;100.00;102500.13;4948262;28;20440;-95
2024/01/25 00:06:56;;;;;;;25.67;4.00;;;;;;;7.64;100.00;102496.69;4945570;28;20485;-95
2024/01/25 00:09:22;;;;;;;24.20;3.60;;;;;;;7.70;100.00;102501.00;4968753;28;20041;-95
2024/01/25 00:11:47;;;;;;;23.80;4.82;;;;;;;7.64;100.00;102495.78;4955835;28;20397;-96
2024/01/25 00:14:13;;;;;;;23.10;3.63;;;;;;;7.60;100.00;102503.19;4962040;28;20042;-94
2024/01/25 00:16:42;;;;;;;25.42;4.05;;;;;;;7.51;100.00;102501.75;4964860;28;20030;-95
2024/01/25 00:19:07;;;;;;;24.33;3.58;;;;;;;7.48;100.00;102501.84;4951326;28;20026;-94
2024/01/25 00:21:33;;;;;;;26.70;3.97;;;;;;;7.52;100.00;102508.94;4974693;28;20030;-95
2024/01/25 00:23:58;;;;;;;25.75;3.78;;;;;;;7.49;100.00;102514.56;4969839;28;20045;-94
2024/01/25 00:26:24;;;;;;;18.90;2.75;;;;;;;7.40;100.00;102497.66;4989628;28;20027;-95
2024/01/25 00:28:49;;;;;;;22.42;3.70;;;;;;;7.42;100.00;102495.75;4952292;28;20364;-95
2024/01/25 00:31:15;;;;;;;20.33;3.47;;;;;;;7.54;100.00;102500.72;4965400;28;20027;-95
2024/01/25 00:33:40;;;;;;;27.05;3.88;;;;;;;7.42;100.00;102514.84;4945751;28;20042;-95
2024/01/25 00:36:06;;;;;;;17.55;3.45;;;;;;;7.34;100.00;102502.38;4955335;28;20022;-95
2024/01/25 00:38:34;;;;;;;23.08;4.05;;;;;;;7.41;100.00;102494.88;4960714;28;20043;-95
2024/01/25 00:41:00;;;;;;;24.52;3.75;;;;;;;7.28;100.00;102493.56;4986427;28;20062;-95
2024/01/25 00:43:26;;;;;;;29.58;3.60;;;;;;;7.30;100.00;102491.69;4980013;28;20038;-94
2024/01/25 00:45:52;;;;;;;23.50;3.95;;;;;;;7.25;100.00;102494.59;4955088;28;20053;-95
2024/01/25 00:48:17;;;;;;;26.52;3.70;;;;;;;7.23;100.00;102501.94;4957330;28;20114;-94
2024/01/25 00:50:46;;;;;;;23.50;3.25;;;;;;;7.17;100.00;102492.16;4977798;28;20081;-94
2024/01/25 00:53:12;;;;;;;22.33;3.40;;;;;;;7.12;100.00;102505.06;4947733;28;20530;-94
2024/01/25 00:55:40;;;;;;;23.75;3.58;;;;;;;7.10;100.00;102501.50;4960370;28;20030;-89
2024/01/25 00:58:06;;;;;;;27.58;3.92;;;;;;;7.11;100.00;102492.38;4960536;28;20026;-89
2024/01/25 01:00:31;;;;;;;25.60;4.90;;;;;;;7.04;100.00;102495.41;4943652;28;20575;-89
2024/01/25 01:03:01;;;;;;;29.83;3.75;;;;;;;7.02;100.00;102498.19;4946197;28;20038;-89
2024/01/25 01:05:27;;;;;;;33.60;5.20;;;;;;;6.98;100.00;102496.50;4965821;28;20089;-89
2024/01/25 01:07:52;;;;;;;20.38;3.65;;;;;;;6.96;100.00;102499.28;4962265;28;20030;-89
2024/01/25 01:10:18;;;;;;;24.75;3.45;;;;;;;7.00;100.00;102500.06;4970880;28;20151;-89
2024/01/25 01:12:43;;;;;;;25.58;4.13;;;;;;;6.96;100.00;102495.69;4942496;28;20051;-88
2024/01/25 01:15:09;;;;;;;22.65;3.38;;;;;;;6.89;100.00;102505.03;4955639;28;20027;-88
2024/01/25 01:17:34;;;;;;;31.17;4.80;;;;;;;6.90;100.00;102514.97;4959723;28;20035;-87
2024/01/25 01:20:00;;;;;;;24.67;4.38;;;;;;;6.92;100.00;102513.06;4957615;28;20033;-88
2024/01/25 01:22:25;;;;;;;32.35;4.90;;;;;;;6.84;100.00;102512.47;4959369;28;20408;-87
2024/01/25 01:24:51;;;;;;;33.15;4.43;;;;;;;6.73;100.00;102513.75;4950407;28;20034;-88
2024/01/25 01:27:16;;;;;;;28.58;4.35;;;;;;;6.65;100.00;102515.00;4959902;28;20125;-88
2024/01/25 01:29:42;;;;;;;24.48;2.90;;;;;;;6.64;100.00;102525.00;4974173;28;20395;-88
2024/01/25 01:32:07;;;;;;;35.50;4.63;;;;;;;6.70;100.00;102526.59;4941878;28;20060;-88
2024/01/25 01:34:33;;;;;;;24.27;4.30;;;;;;;6.73;100.00;102523.75;4940383;28;20034;-85
2024/01/25 01:36:58;;;;;;;26.60;4.25;;;;;;;6.70;100.00;102527.47;4970378;28;20090;-87
2024/01/25 01:39:25;;;;;;;32.75;4.43;;;;;;;6.75;100.00;102535.47;4954301;28;20026;-88
2024/01/25 01:41:50;;;;;;;26.25;3.85;;;;;;;6.66;100.00;102527.63;4971355;28;20049;-88
2024/01/25 01:44:16;;;;;;;26.33;4.30;;;;;;;6.70;100.00;102541.09;4939279;28;20034;-88
2024/01/25 01:46:42;;;;;;;26.75;3.90;;;;;;;6.64;100.00;102541.31;4951816;28;20049;-87
2024/01/25 01:49:10;;;;;;;29.58;3.92;;;;;;;6.58;100.00;102536.97;4956360;28;20080;-88
2024/01/25 01:51:37;;;;;;;27.80;4.68;;;;;;;6.56;100.00;102543.41;4972249;28;20030;-88
2024/01/25 01:54:05;;;;;;;22.30;4.45;;;;;;;6.47;100.00;102552.78;4975749;28;20037;-87
2024/01/25 01:56:31;;;;;;;23.02;4.07;;;;;;;6.44;100.00;102561.03;4975007;28;20042;-88
2024/01/25 01:59:07;;;;;;;27.58;3.88;;;;;;;6.43;100.00;102564.72;4977114;28;20173;-87
2024/01/25 02:01:33;;;;;;;28.30;4.75;;;;;;;6.33;100.00;102558.72;4962232;28;20050;-86
2024/01/25 02:03:58;;;;;;;30.90;4.32;;;;;;;6.26;100.00;102554.41;4940513;28;20121;-88
2024/01/25 02:06:24;;;;;;;32.35;4.10;;;;;;;6.39;100.00;102563.91;4934356;28;20125;-88
2024/01/25 02:08:50;;;;;;;21.42;3.42;;;;;;;6.39;100.00;102574.78;4954561;28;20439;-87
2024/01/25 02:11:17;;;;;;;24.65;3.97;;;;;;;6.30;100.00;102575.13;4956937;28;20034;-88
2024/01/25 02:13:42;;;;;;;33.25;3.85;;;;;;;6.32;100.00;102572.34;4960953;28;20507;-87
2024/01/25 02:16:08;;;;;;;32.20;4.30;;;;;;;6.30;100.00;102572.41;4955752;28;20026;-87
2024/01/25 02:18:34;;;;;;;23.80;3.55;;;;;;;6.26;100.00;102578.88;4972645;28;20036;-87
2024/01/25 02:20:59;;;;;;;25.67;3.85;;;;;;;6.25;100.00;102583.44;4958192;28;20484;-86
2024/01/25 02:23:26;;;;;;;21.38;3.42;;;;;;;6.17;100.00;102590.97;4955028;28;20034;-87
2024/01/25 02:25:57;;;;;;;27.33;4.25;;;;;;;6.12;100.00;102594.78;4958682;28;20475;-87
2024/01/25 02:28:22;;;;;;;33.78;4.40;;;;;;;6.09;100.00;102594.88;4971721;28;20044;-87
2024/01/25 02:30:48;;;;;;;28.42;4.53;;;;;;;6.04;100.00;102600.47;4957635;28;20039;-87
2024/01/25 02:33:13;;;;;;;28.33;4.57;;;;;;;6.02;100.00;102592.34;4952192;28;20982;-88
2024/01/25 02:35:39;;;;;;;22.05;4.05;;;;;;;5.92;100.00;102592.63;4944913;28;20034;-87
2024/01/25 02:38:04;;;;;;;25.38;4.10;;;;;;;5.96;100.00;102586.19;4970906;28;20446;-88
2024/01/25 02:40:31;;;;;;;28.63;3.55;;;;;;;5.94;100.00;102583.50;4955666;28;20108;-88
2024/01/25 02:42:56;;;;;;;26.23;3.92;;;;;;;5.97;100.00;102583.44;4959561;28;20034;-87
2024/01/25 02:45:23;;;;;;;25.88;4.50;;;;;;;5.96;100.00;102576.22;4943739;28;20333;-88
2024/01/25 02:47:48;;;;;;;31.10;5.15;;;;;;;5.99;100.00;102572.53;4959361;28;20034;-89
2024/01/25 02:50:14;;;;;;;30.23;4.47;;;;;;;6.00;100.00;102579.72;4943076;28;20413;-87
2024/01/25 02:52:40;;;;;;;34.70;4.28;;;;;;;5.95;100.00;102573.50;4963193;28;20060;-88
2024/01/25 02:55:05;;;;;;;23.52;3.78;;;;;;;5.93;100.00;102575.41;4954822;28;20428;-88
2024/01/25 02:57:31;;;;;;;29.02;4.43;;;;;;;5.92;100.00;102577.25;4974314;28;20038;-87
2024/01/25 02:59:57;;;;;;;26.08;3.80;;;;;;;5.96;100.00;102584.38;4975946;28;20050;-88
2024/01/25 03:02:23;;;;;;;27.15;5.18;;;;;;;5.94;100.00;102578.06;4978802;28;20117;-88
2024/01/25 03:04:48;;;;;;;22.10;4.68;;;;;;;5.86;100.00;102583.75;4963452;28;20037;-87
2024/01/25 03:07:14;;;;;;;22.63;3.40;;;;;;;5.82;100.00;102583.88;4975371;28;20080;-87
2024/01/25 03:09:42;;;;;;;28.58;4.65;;;;;;;5.84;100.00;102582.03;4979250;28;20037;-86
2024/01/25 03:12:07;;;;;;;33.15;4.95;;;;;;;5.90;100.00;102587.25;4963008;28;20030;-88
2024/01/25 03:14:33;;;;;;;31.05;4.22;;;;;;;5.89;100.00;102589.09;4948999;28;20036;-88
2024/01/25 03:16:59;;;;;;;23.50;3.88;;;;;;;5.79;100.00;102586.69;4980820;28;20088;-94
2024/01/25 03:19:25;;;;;;;32.33;4.20;;;;;;;5.77;100.00;102591.28;4964177;28;20088;-93
2024/01/25 03:21:54;;;;;;;22.80;4.20;;;;;;;5.79;100.00;102587.59;4945499;28;20041;-94
2024/01/25 03:24:21;;;;;;;31.35;3.65;;;;;;;5.79;100.00;102587.59;4980670;28;20030;-94
2024/01/25 03:26:46;;;;;;;22.58;3.45;;;;;;;5.78;100.00;102585.81;4961431;28;20035;-95
2024/01/25 03:29:12;;;;;;;27.67;4.82;;;;;;;5.77;100.00;102596.72;4979161;28;20089;-93
2024/01/25 03:31:38;;;;;;;30.38;5.32;;;;;;;5.71;100.00;102593.25;4962564;28;20036;-94
2024/01/25 03:34:04;;;;;;;27.38;4.35;;;;;;;5.62;100.00;102593.53;4943107;28;20039;-94
2024/01/25 03:36:31;;;;;;;32.60;4.32;;;;;;;5.59;100.00;102604.53;4972821;28;20035;-93
2024/01/25 03:38:57;;;;;;;35.38;4.95;;;;;;;5.61;100.00;102607.19;4975493;28;20039;-93
2024/01/25 03:41:23;;;;;;;30.50;5.10;;;;;;;5.51;100.00;102603.88;4964064;28;20045;-94
2024/01/25 03:43:48;;;;;;;23.02;3.65;;;;;;;5.59;100.00;102606.31;4965010;28;20101;-94
2024/01/25 03:46:14;;;;;;;32.92;4.30;;;;;;;5.55;100.00;102610.97;4947994;28;20113;-94
2024/01/25 03:48:41;;;;;;;27.60;5.13;;;;;;;5.51;100.00;102606.59;4963967;28;20131;-94
2024/01/25 03:51:07;;;;;;;27.95;3.97;;;;;;;5.50;100.00;102604.78;4975313;28;20519;-94
2024/01/25 03:53:32;;;;;;;30.38;4.63;;;;;;;5.45;100.00;102610.34;4979402;28;20096;-94
2024/01/25 03:55:58;;;;;;;26.52;4.35;;;;;;;5.37;100.00;102606.09;4964371;28;20084;-94
2024/01/25 03:58:23;;;;;;;21.42;3.85;;;;;;;5.37;100.00;102608.81;4959720;28;20093;-94
2024/01/25 04:00:49;;;;;;;27.48;4.10;;;;;;;5.28;100.00;102599.97;4960922;28;20420;-93
2024/01/25 04:03:14;;;;;;;23.80;4.38;;;;;;;5.30;100.00;102603.53;4961772;28;20042;-93
2024/01/25 04:05:40;;;;;;;37.08;5.35;;;;;;;5.30;100.00;102602.66;4946809;28;20054;-95
2024/01/25 04:08:06;;;;;;;27.25;3.47;;;;;;;5.36;100.00;102607.00;4946562;28;20034;-93
2024/01/25 04:10:31;;;;;;;33.80;4.80;;;;;;;5.29;100.00;102607.19;4981683;28;20038;-94
2024/01/25 04:12:57;;;;;;;32.15;4.85;;;;;;;5.24;100.00;102611.84;4966742;28;20038;-93
2024/01/25 04:15:23;;;;;;;34.00;4.38;;;;;;;5.21;100.00;102608.34;4981530;28;20034;-94
2024/01/25 04:17:48;;;;;;;31.55;3.70;;;;;;;5.22;100.00;102612.84;4963231;28;20029;-94
2024/01/25 04:20:14;;;;;;;26.98;4.05;;;;;;;5.19;100.00;102605.66;4950827;28;20030;-94
2024/01/25 04:22:40;;;;;;;30.00;5.43;;;;;;;5.06;100.00;102607.81;4965295;28;20058;-94
2024/01/25 04:25:06;;;;;;;22.13;3.38;;;;;;;5.05;100.00;102603.34;4949306;28;20436;-93
2024/01/25 04:27:31;;;;;;;28.38;4.10;;;;;;;5.06;100.00;102606.94;4947882;28;20031;-87
2024/01/25 04:29:57;;;;;;;29.02;4.43;;;;;;;5.03;100.00;102607.03;4979478;28;20033;-88
2024/01/25 04:32:22;;;;;;;26.33;3.97;;;;;;;4.97;100.00;102608.09;4960530;28;20042;-87
2024/01/25 04:34:48;;;;;;;24.73;4.53;;;;;;;4.86;100.00;102604.78;4946186;28;20511;-87
2024/01/25 04:37:14;;;;;;;35.88;4.15;;;;;;;4.84;100.00;102604.81;4944598;28;20118;-87
2024/01/25 04:39:43;;;;;;;39.22;5.13;;;;;;;4.81;100.00;102599.47;4974340;28;20037;-87
2024/01/25 04:42:09;;;;;;;28.40;4.22;;;;;;;4.82;100.00;102600.34;4972964;28;20031;-87
2024/01/25 04:44:34;;;;;;;36.28;4.00;;;;;;;4.81;100.00;102604.91;4958805;28;20071;-87
2024/01/25 04:47:01;;;;;;;34.25;3.90;;;;;;;4.74;100.00;102600.59;4943258;28;20038;-87
2024/01/25 04:49:27;;;;;;;27.88;4.25;;;;;;;4.71;100.00;102603.38;4957245;28;20065;-87
2024/01/25 04:51:55;;;;;;;33.17;4.20;;;;;;;4.70;100.00;102594.31;4941420;28;20789;-88
2024/01/25 04:54:21;;;;;;;31.08;3.97;;;;;;;4.69;100.00;102588.94;4937169;28;20054;-86
2024/01/25 04:56:46;;;;;;;28.02;3.97;;;;;;;4.60;100.00;102599.09;4957560;28;20117;-86
2024/01/25 04:59:12;;;;;;;26.98;4.28;;;;;;;4.59;100.00;102594.63;4942551;28;20039;-86
2024/01/25 05:01:38;;;;;;;31.67;4.63;;;;;;;4.50;100.00;102574.97;4960423;28;20065;-86
2024/01/25 05:04:04;;;;;;;27.58;4.22;;;;;;;4.49;100.00;102579.50;4944228;28;20034;-85
2024/01/25 05:06:29;;;;;;;25.92;3.63;;;;;;;4.47;100.00;102589.50;4957641;28;20632;-86
2024/01/25 05:08:54;;;;;;;22.05;3.20;;;;;;;4.43;100.00;102587.81;4960749;28;20495;-86
2024/01/25 05:11:20;;;;;;;29.67;4.25;;;;;;;4.49;100.00;102598.47;4958310;28;20035;-87
2024/01/25 05:13:45;;;;;;;35.90;4.20;;;;;;;4.49;100.00;102590.34;4960428;28;20034;-86
2024/01/25 05:16:12;;;;;;;25.90;4.50;;;;;;;4.48;100.00;102584.97;4958240;28;20150;-86
2024/01/25 05:18:37;;;;;;;28.52;3.75;;;;;;;4.42;100.00;102591.44;4943609;28;20126;-86
2024/01/25 05:21:04;;;;;;;36.00;5.22;;;;;;;4.44;100.00;102592.28;4955911;28;20045;-86
2024/01/25 05:23:30;;;;;;;31.17;3.55;;;;;;;4.42;100.00;102591.44;4957443;28;20045;-88
2024/01/25 05:25:56;;;;;;;35.83;4.72;;;;;;;4.47;100.00;102594.03;4958859;28;20027;-89
2024/01/25 05:28:24;;;;;;;25.08;3.90;;;;;;;4.38;100.00;102593.34;4959688;28;20038;-93
2024/01/25 05:30:50;;;;;;;29.83;3.90;;;;;;;4.39;100.00;102587.00;4975570;28;20574;-88
2024/01/25 05:33:15;;;;;;;30.75;3.58;;;;;;;4.36;100.00;102584.38;4943265;28;20062;-90
2024/01/25 05:35:40;;;;;;;25.73;4.13;;;;;;;4.33;100.00;102594.38;4945473;28;20057;-94
2024/01/25 05:38:07;;;;;;;25.52;3.97;;;;;;;4.26;100.00;102585.50;4949178;28;20030;-91
2024/01/25 05:40:32;;;;;;;31.25;4.45;;;;;;;4.19;100.00;102597.44;4978006;28;20040;-92
2024/01/25 05:42:57;;;;;;;29.13;4.28;;;;;;;4.22;100.00;102609.09;4948231;28;20026;-94
2024/01/25 05:45:24;;;;;;;29.17;3.80;;;;;;;4.16;100.00;102616.47;4951872;28;20492;-95
2024/01/25 05:47:50;;;;;;;30.17;4.10;;;;;;;4.17;100.00;102619.16;4946970;28;20022;-94
2024/01/25 05:50:17;;;;;;;33.40;4.00;;;;;;;4.14;100.00;102612.91;4993120;28;20537;-95
2024/01/25 05:52:42;;;;;;;32.65;3.83;;;;;;;4.14;100.00;102619.22;4973989;28;20034;-94
2024/01/25 05:55:08;;;;;;;31.80;4.38;;;;;;;4.12;100.00;102615.66;4950657;28;20571;-94
2024/01/25 05:57:37;;;;;;;27.77;4.18;;;;;;;4.09;100.00;102629.28;4959798;28;20042;-95
2024/01/25 06:00:07;;;;;;;26.38;3.72;;;;;;;4.13;100.00;102636.44;4957879;28;20046;-94
2024/01/25 06:02:33;;;;;;;23.05;4.22;;;;;;;4.08;100.00;102630.19;4954932;28;20036;-94
2024/01/25 06:04:59;;;;;;;33.60;4.93;;;;;;;4.07;100.00;102638.38;4959995;28;20026;-95
2024/01/25 06:07:27;;;;;;;30.38;3.85;;;;;;;4.03;100.00;102635.75;4937641;28;20473;-94
2024/01/25 06:09:53;;;;;;;29.70;4.78;;;;;;;3.99;100.00;102643.97;4974881;28;20026;-93
2024/01/25 06:12:19;;;;;;;29.67;4.55;;;;;;;3.95;100.00;102642.25;4952636;29;20122;-92
2024/01/25 06:14:44;;;;;;;31.45;4.13;;;;;;;4.03;100.00;102648.41;4958512;28;20030;-92
2024/01/25 06:17:10;;;;;;;28.15;4.50;;;;;;;4.00;100.00;102643.03;4970993;28;20031;-92
2024/01/25 06:19:35;;;;;;;28.30;4.20;;;;;;;3.97;100.00;102632.28;4957061;28;20034;-94
2024/01/25 06:22:01;;;;;;;29.73;4.93;;;;;;;3.90;100.00;102631.50;4941817;28;20034;-94
2024/01/25 06:24:26;;;;;;;34.60;4.57;;;;;;;3.90;100.00;102631.50;4975803;28;20492;-93
2024/01/25 06:26:55;;;;;;;29.77;3.55;;;;;;;3.81;100.00;102632.63;4953571;28;20035;-92
2024/01/25 06:29:20;;;;;;;31.67;4.88;;;;;;;3.84;100.00;102631.69;4967507;28;20424;-93
2024/01/25 06:31:46;;;;;;;32.88;4.43;;;;;;;3.79;100.00;102639.03;4955614;28;20027;-95
2024/01/25 06:34:11;;;;;;;39.10;4.05;;;;;;;3.78;100.00;102643.53;4975009;28;20062;-95
2024/01/25 06:36:37;;;;;;;29.30;4.40;;;;;;;3.79;100.00;102650.75;4955677;29;20031;-94
2024/01/25 06:39:04;;;;;;;32.13;5.15;;;;;;;3.73;100.00;102649.97;4949240;28;20035;-94
2024/01/25 06:41:29;;;;;;;28.15;4.18;;;;;;;3.75;100.00;102653.53;4959906;28;20039;-92
2024/01/25 06:43:55;;;;;;;31.48;4.32;;;;;;;3.71;100.00;102652.72;4942294;28;20030;-92
2024/01/25 06:46:21;;;;;;;25.92;3.55;;;;;;;3.65;100.00;102642.88;4942161;28;20037;-95
2024/01/25 06:48:47;;;;;;;29.73;4.32;;;;;;;3.67;100.00;102646.47;4939855;28;20050;-92
2024/01/25 06:51:14;;;;;;;32.97;4.85;;;;;;;3.69;100.00;102641.03;4937253;28;20053;-93
2024/01/25 06:53:42;;;;;;;34.63;4.72;;;;;;;3.70;100.00;102641.91;4942046;28;20516;-92
2024/01/25 06:56:07;;;;;;;37.20;4.22;;;;;;;3.66;100.00;102650.09;4940816;28;20073;-93
2024/01/25 06:58:32;;;;;;;34.25;4.60;;;;;;;3.74;100.00;102660.78;4939243;29;20024;-93
2024/01/25 07:00:59;;;;;;;27.40;4.38;;;;;;;3.69;100.00;102649.16;4951538;29;20051;-93
2024/01/25 07:03:25;;;;;;;33.25;4.18;;;;;;;3.72;100.00;102653.59;4971872;28;20096;-93
2024/01/25 07:05:50;;;;;;;34.20;4.32;;;;;;;3.77;100.00;102651.69;4981340;28;20143;-93
2024/01/25 07:08:15;;;;;;;27.38;4.30;;;;;;;3.77;100.00;102655.31;4944477;28;20027;-92
2024/01/25 07:10:42;;;;;;;31.40;4.47;;;;;;;3.72;100.00;102654.47;4951307;28;20154;-93
2024/01/25 07:13:07;;;;;;;24.65;4.30;;;;;;;3.73;100.00;102640.03;4958377;28;20118;-93
2024/01/25 07:15:33;;;;;;;26.75;4.78;;;;;;;3.69;100.00;102649.16;4986827;28;20124;-94
2024/01/25 07:17:58;;;;;;;36.58;4.93;;;;;;;3.70;100.00;102653.63;4937117;28;20469;-92
2024/01/25 07:20:23;;;;;;;28.45;4.65;;;;;;;3.71;100.00;102652.72;4952182;28;20123;-92
2024/01/25 07:22:49;;;;;;;32.70;5.28;;;;;;;3.67;100.00;102640.16;4948180;28;20035;-93
2024/01/25 07:25:14;;;;;;;29.75;4.65;;;;;;;3.63;100.00;102649.28;4958051;28;20464;-93
2024/01/25 07:27:44;;;;;;;32.10;5.30;;;;;;;3.63;100.00;102644.75;4975677;28;20089;-92
2024/01/25 07:30:10;;;;;;;22.85;4.10;;;;;;;3.61;100.00;102643.00;4954398;28;20027;-93
2024/01/25 07:32:36;;;;;;;29.80;4.63;;;;;;;3.50;100.00;102657.66;4953821;28;20130;-93
2024/01/25 07:35:01;;;;;;;37.50;5.15;;;;;;;3.54;100.00;102653.06;4945493;28;20054;-94
2024/01/25 07:37:28;;;;;;;22.30;4.47;;;;;;;3.61;100.00;102657.44;4959914;28;20058;-93
2024/01/25 07:39:53;;;;;;;39.30;5.13;;;;;;;3.64;100.00;102659.16;4946376;28;20035;-94
2024/01/25 07:42:18;;;;;;;31.55;5.47;;;;;;;3.63;100.00;102668.25;4939158;28;20078;-93
2024/01/25 07:44:44;;;;;;;32.20;5.57;;;;;;;3.66;100.00;102668.19;4946361;28;20118;-94
2024/01/25 07:47:09;;;;;;;39.97;6.63;;;;;;;3.73;100.00;102668.94;4970824;28;20062;-94
2024/01/25 07:49:35;;;;;;;32.80;5.43;;;;;;;3.71;100.00;102682.53;4962119;28;20085;-93
2024/01/25 07:52:00;;;;;;;42.20;6.65;;;;;;;3.84;100.00;102688.56;4962041;28;20049;-94
2024/01/25 07:54:25;;;;;;;31.90;5.63;;;;;;;3.81;100.00;102689.50;4946454;28;20050;-95
2024/01/25 07:56:51;;;;;;;28.50;4.60;;;;;;;3.83;100.00;102682.25;4949251;28;20073;-82
2024/01/25 07:59:16;;;;;;;35.53;5.63;;;;;;;3.80;100.00;102674.16;4974711;28;20042;-84
2024/01/25 08:01:42;;;;;;;44.72;5.95;;;;;;;3.85;100.00;102693.03;4956565;28;20468;-85
2024/01/25 08:04:08;;;;;;;35.55;5.03;;;;;;;3.90;100.00;102682.13;4940913;28;20049;-84
2024/01/25 08:06:34;;;;;;;35.53;5.80;;;;;;;3.93;100.00;102685.66;4952513;28;20035;-84
2024/01/25 08:09:00;;;;;;;37.08;5.82;;;;;;;3.93;100.00;102684.75;4968403;28;20038;-84
2024/01/25 08:11:27;;;;;;;43.35;5.65;;;;;;;3.97;100.00;102679.25;4970755;28;20054;-87
2024/01/25 08:13:53;;;;;;;38.72;6.75;;;;;;;3.96;100.00;102673.88;4940774;28;20054;-85
2024/01/25 08:16:19;;;;;;;35.42;6.38;;;;;;;4.03;100.00;102675.50;4966735;28;20047;-86
2024/01/25 08:18:45;;;;;;;37.97;6.97;;;;;;;4.08;100.00;102687.13;4940490;28;20506;-85
2024/01/25 08:21:12;;;;;;;38.65;7.10;;;;;;;4.09;100.00;102699.75;4952652;28;20073;-86
2024/01/25 08:23:38;;;;;;;39.63;6.53;;;;;;;4.10;100.00;102689.81;4971584;28;20081;-84
2024/01/25 08:26:04;;;;;;;42.60;7.78;;;;;;;4.13;100.00;102693.38;4947107;28;20035;-86
2024/01/25 08:28:30;;;;;;;48.08;7.70;;;;;;;4.12;100.00;102694.28;4957360;28;20050;-86
2024/01/25 08:30:57;;;;;;;42.17;7.18;;;;;;;4.14;100.00;102684.28;4941306;28;20026;-85
2024/01/25 08:33:24;;;;;;;34.03;8.05;;;;;;;4.17;100.00;102680.63;4955121;28;20027;-86
2024/01/25 08:35:49;;;;;;;39.30;7.90;;;;;;;4.18;100.00;102672.47;4955431;28;20174;-86
2024/01/25 08:38:15;;;;;;;46.88;10.02;;;;;;;4.20;100.00;102678.72;4942453;28;20129;-85
2024/01/25 08:40:40;;;;;;;47.58;9.57;;;;;;;4.27;100.00;102679.47;4954757;28;20116;-85
2024/01/25 08:43:06;;;;;;;47.25;10.23;;;;;;;4.26;100.00;102693.06;4940856;28;20026;-88
2024/01/25 08:45:31;;;;;;;50.33;9.60;;;;;;;4.31;100.00;102707.41;4954990;28;20511;-84
2024/01/25 08:47:58;;;;;;;53.80;10.80;;;;;;;4.32;100.00;102692.94;4967909;28;20039;-85
2024/01/25 08:50:23;;;;;;;46.40;9.85;;;;;;;4.34;100.00;102680.22;4954016;28;20038;-84
2024/01/25 08:52:49;;;;;;;41.60;10.48;;;;;;;4.39;100.00;102651.16;4954235;28;20047;-86
2024/01/25 08:55:14;;;;;;;44.80;12.27;;;;;;;4.44;100.00;102657.38;4954640;28;20491;-85
2024/01/25 08:57:40;;;;;;;57.60;11.73;;;;;;;4.45;100.00;102669.13;4950741;28;20031;-86
2024/01/25 09:00:10;;;;;;;44.83;9.70;;;;;;;4.48;100.00;102677.19;4944677;28;20027;-89
2024/01/25 09:02:36;;;;;;;52.83;10.13;;;;;;;4.54;100.00;102690.59;4965224;28;20057;-87
2024/01/25 09:05:02;;;;;;;40.92;11.50;;;;;;;4.54;100.00;102715.00;4945052;28;20054;-88
2024/01/25 09:07:27;;;;;;;51.22;12.35;;;;;;;4.53;100.00;102700.56;4965912;28;20042;-96
2024/01/25 09:09:55;;;;;;;41.67;10.65;;;;;;;4.58;100.00;102727.56;4975211;28;20062;-96
2024/01/25 09:12:20;;;;;;;43.17;10.98;;;;;;;4.60;100.00;102715.75;4970408;28;20106;-91
2024/01/25 09:14:46;;;;;;;42.10;10.63;;;;;;;4.56;100.00;102724.91;4983438;28;20444;-96
2024/01/25 09:17:13;;;;;;;45.53;11.20;;;;;;;4.60;100.00;102715.75;4955105;28;20068;-95
2024/01/25 09:19:39;;;;;;;37.95;10.98;;;;;;;4.56;100.00;102713.16;4944772;28;20027;-94
2024/01/25 09:22:07;;;;;;;40.58;10.73;;;;;;;4.59;100.00;102713.97;4935690;28;20035;-94
2024/01/25 09:24:35;;;;;;;42.78;12.10;;;;;;;4.69;100.00;102717.38;4981380;28;20038;-94
2024/01/25 09:27:02;;;;;;;47.78;12.57;;;;;;;4.74;100.00;102701.84;4980468;28;20034;-94
2024/01/25 09:29:28;;;;;;;37.22;11.63;;;;;;;4.75;100.00;102691.88;4964013;28;20480;-94
2024/01/25 09:31:54;;;;;;;37.90;12.25;;;;;;;4.72;100.00;102681.09;4944277;28;20118;-94
2024/01/25 09:34:21;;;;;;;45.97;13.57;;;;;;;4.81;100.00;102680.00;4943969;28;20051;-93
2024/01/25 09:36:47;;;;;;;49.45;13.95;;;;;;;4.95;100.00;102685.94;4977210;28;20104;-94
2024/01/25 09:39:14;;;;;;;39.90;12.48;;;;;;;4.95;100.00;102685.94;4971551;28;20568;-94
2024/01/25 09:41:40;;;;;;;45.88;11.98;;;;;;;5.06;100.00;102697.41;4971386;28;20045;-94
2024/01/25 09:44:10;;;;;;;39.67;13.23;;;;;;;5.13;100.00;102701.78;4946867;28;20400;-94
2024/01/25 09:46:37;;;;;;;33.22;11.93;;;;;;;5.21;100.00;102706.09;4964026;28;20038;-93
2024/01/25 09:49:03;;;;;;;43.42;12.77;;;;;;;5.12;100.00;102685.53;4959654;28;20034;-95
2024/01/25 09:51:42;;;;;;;31.23;11.60;;;;;;;5.34;100.00;102700.31;4946132;28;20034;-93
2024/01/25 09:54:08;;;;;;;42.35;13.07;;;;;;;5.40;100.00;102682.94;5001930;28;20019;-93
2024/01/25 09:56:34;;;;;;;38.10;12.60;;;;;;;5.48;100.00;102689.03;4981459;28;20046;-94
2024/01/25 09:59:00;;;;;;;39.45;13.20;;;;;;;5.53;100.00;102695.25;4965833;28;20030;-94
2024/01/25 10:01:26;;;;;;;37.75;12.55;;;;;;;5.70;100.00;102694.75;4962950;28;20065;-93
2024/01/25 10:03:52;;;;;;;41.13;13.32;;;;;;;5.68;100.00;102693.03;4968432;28;20053;-93
2024/01/25 10:06:18;;;;;;;34.10;12.25;;;;;;;5.70;100.00;102699.28;4952838;28;20023;-94
2024/01/25 10:08:44;;;;;;;42.47;12.93;;;;;;;5.64;100.00;102704.91;4978183;28;20038;-94
2024/01/25 10:11:13;;;;;;;44.42;13.65;;;;;;;5.61;100.00;102683.28;4981958;28;20030;-94
2024/01/25 10:13:42;;;;;;;41.15;13.57;;;;;;;5.69;100.00;102668.53;4985810;28;20023;-93
2024/01/25 10:16:14;;;;;;;39.75;13.15;;;;;;;5.67;100.00;102672.22;4981391;28;20125;-90
2024/01/25 10:18:45;;;;;;;41.85;14.45;;;;;;;5.71;100.00;102690.22;4977583;28;20022;-89
2024/01/25 10:21:11;;;;;;;44.35;15.35;;;;;;;5.79;100.00;102684.53;4976553;28;20060;-95
2024/01/25 10:23:37;;;;;;;37.28;13.65;;;;;;;5.85;100.00;102687.09;4978165;28;20038;-88
2024/01/25 10:26:02;;;;;;;35.45;13.90;;;;;;;5.96;100.00;102693.13;4949185;28;20026;-88
2024/01/25 10:28:30;;;;;;;42.95;14.13;;;;;;;6.01;100.00;102680.28;4976017;28;20045;-88
2024/01/25 10:30:57;;;;;;;40.72;14.50;;;;;;;6.08;100.00;102683.69;4956115;28;20092;-88
2024/01/25 10:33:25;;;;;;;44.63;15.07;;;;;;;6.09;100.00;102673.72;4970694;28;20035;-88
2024/01/25 10:35:55;;;;;;;43.63;14.73;;;;;;;6.10;100.00;102681.84;4970616;28;20511;-87
2024/01/25 10:38:21;;;;;;;41.17;14.60;;;;;;;6.19;100.00;102664.34;4971064;28;20049;-87
2024/01/25 10:40:47;;;;;;;50.38;15.63;;;;;;;6.21;100.00;102684.22;4975128;28;20049;-90
2024/01/25 10:43:13;;;;;;;44.75;15.25;;;;;;;6.23;100.00;102672.38;4960571;28;20034;-90
2024/01/25 10:45:38;;;;;;;44.03;15.20;;;;;;;6.24;100.00;102678.69;4960495;28;20038;-90
2024/01/25 10:48:07;;;;;;;45.53;14.77;;;;;;;6.29;100.00;102679.41;4956454;28;20029;-87
2024/01/25 10:50:32;;;;;;;42.88;14.85;;;;;;;6.39;100.00;102656.41;4955488;28;20042;-90
2024/01/25 10:52:59;;;;;;;51.25;15.98;;;;;;;6.37;100.00;102654.69;4942314;28;20022;-87
2024/01/25 10:55:25;;;;;;;42.40;15.80;;;;;;;6.42;100.00;102666.31;4990038;28;20037;-90
2024/01/25 10:57:52;;;;;;;47.92;17.02;;;;;;;6.53;100.00;102652.38;4958103;28;20042;-91
2024/01/25 11:00:18;;;;;;;45.58;17.00;;;;;;;6.44;100.00;102651.75;4960812;28;20054;-90
2024/01/25 11:02:44;;;;;;;52.55;17.10;;;;;;;6.46;100.00;102645.34;4960981;28;20077;-90
2024/01/25 11:05:15;;;;;;;52.83;18.33;;;;;;;6.47;100.00;102645.28;4940897;28;20034;-89
2024/01/25 11:07:48;;;;;;;49.60;18.75;;;;;;;6.48;100.00;102635.28;4969660;28;20122;-89
2024/01/25 11:10:14;;;;;;;;;;;;;;;6.38;100.00;102641.06;4978875;28;20053;-90
2024/01/25 11:12:57;;;;;;;51.33;18.50;;;;;;;6.38;100.00;102643.78;4976607;28;19922;-90